createdAt,value
2023-03-23T16:00:37.836Z,17.36
2023-03-23T16:05:40.004Z,17.25
2023-03-23T16:10:43.388Z,17.13
2023-03-23T16:15:47.599Z,17.02
2023-03-23T16:20:50.766Z,16.89
2023-03-23T16:25:52.762Z,16.77
2023-03-23T16:30:54.603Z,16.64
2023-03-23T16:35:57.569Z,16.53
2023-03-23T16:40:59.377Z,16.42
2023-03-23T16:46:01.201Z,16.32
2023-03-23T16:51:02.851Z,16.24
2023-03-23T16:56:04.978Z,16.17
2023-03-23T17:01:07.020Z,16.11
2023-03-23T17:06:09.007Z,16.06
2023-03-23T17:11:11.395Z,15.99
2023-03-23T17:16:13.488Z,15.89
2023-03-23T17:21:15.215Z,15.78
2023-03-23T17:26:16.895Z,15.68
2023-03-23T17:31:18.744Z,15.54
2023-03-23T17:36:20.584Z,15.40
2023-03-23T17:41:22.557Z,15.28
2023-03-23T17:46:25.016Z,15.18
2023-03-23T17:51:26.830Z,15.09
2023-03-23T17:56:28.681Z,15.01
2023-03-23T18:01:30.722Z,14.93
2023-03-23T18:06:33.204Z,14.84
2023-03-23T18:11:35.358Z,14.77
2023-03-23T18:16:37.564Z,14.71
2023-03-23T18:21:40.469Z,14.68
2023-03-23T18:26:42.235Z,14.63
2023-03-23T18:31:44.539Z,14.58
2023-03-23T18:36:47.739Z,14.54
2023-03-23T18:41:49.607Z,14.54
2023-03-23T18:46:51.594Z,14.57
2023-03-23T18:51:54.458Z,14.64
2023-03-23T18:57:00.368Z,14.68
2023-03-23T19:02:03.573Z,14.68
2023-03-23T19:07:05.929Z,14.68
2023-03-23T19:12:12.185Z,14.66
2023-03-23T19:17:14.239Z,14.66
2023-03-23T19:22:15.927Z,14.68
2023-03-23T19:27:19.204Z,14.72
2023-03-23T19:32:21.783Z,14.74
2023-03-23T19:37:23.682Z,14.77
2023-03-23T19:42:25.749Z,14.82
2023-03-23T19:47:28.195Z,14.87
2023-03-23T19:52:33.089Z,14.96
2023-03-23T19:57:35.288Z,15.01
2023-03-23T20:02:37.444Z,15.02
2023-03-23T20:07:41.730Z,15.03
2023-03-23T20:12:45.608Z,15.06
2023-03-23T20:17:48.393Z,15.09
2023-03-23T20:22:53.325Z,15.14
2023-03-23T20:27:56.181Z,15.13
2023-03-23T20:33:00.783Z,15.09
2023-03-23T20:38:02.499Z,15.06
2023-03-23T20:43:04.524Z,15.05
2023-03-23T20:48:06.527Z,15.04
2023-03-23T20:53:08.708Z,15.02
2023-03-23T20:58:10.673Z,15.00
2023-03-23T21:03:14.278Z,14.98
2023-03-23T21:08:18.207Z,14.97
2023-03-23T21:13:20.010Z,14.98
2023-03-23T21:18:22.206Z,14.99
2023-03-23T21:23:26.661Z,14.99
2023-03-23T21:28:29.022Z,14.99
2023-03-23T21:33:31.074Z,14.99
2023-03-23T21:38:33.834Z,15.01
2023-03-23T21:43:36.445Z,15.04
2023-03-23T21:48:38.878Z,15.07
2023-03-23T21:53:42.165Z,15.07
2023-03-23T21:58:43.934Z,15.04
2023-03-23T22:03:46.213Z,14.99
2023-03-23T22:08:49.221Z,14.95
2023-03-23T22:13:56.557Z,14.92
2023-03-23T22:19:00.375Z,14.87
2023-03-23T22:24:02.587Z,14.80
2023-03-23T22:29:05.377Z,14.73
2023-03-23T22:34:07.494Z,14.65
2023-03-23T22:39:09.864Z,14.57
2023-03-23T22:44:15.674Z,14.50
2023-03-23T22:49:37.534Z,14.47
2023-03-23T22:54:59.657Z,14.47
2023-03-23T23:00:07.569Z,14.48
2023-03-23T23:05:13.772Z,14.50
2023-03-23T23:10:15.617Z,14.52
2023-03-23T23:15:17.324Z,14.54
2023-03-23T23:20:19.961Z,14.56
2023-03-23T23:25:22.381Z,14.57
2023-03-23T23:30:24.420Z,14.57
2023-03-23T23:35:27.121Z,14.55
2023-03-23T23:40:28.860Z,14.53
2023-03-23T23:45:31.609Z,14.51
2023-03-23T23:50:33.860Z,14.50
2023-03-23T23:55:35.523Z,14.48
